• Join FlightAware (Why Join?)
  • Login
  • US Flag 
05:24PM EDT


 

Airport Tracker/Info


-or-


 

Live Flight TrackerFlight Track Log ✈ N137TK ✈ 09-May-2013 ✈ KAVL - KYIP

Flight Track Log - Related Links

Times and Time Zones

All times are in EDT time to prevent confusion due to time zone crossing. See the N137TK flight status page for this flight to view local times or setup timezone preferences in your user account.

Time Position Orientation Groundspeed Altitude Reporting Facility
EDT Latitude Longitude Course Direction KTS MPH feet Rate Location/Type
08:17AM 35.5153 -82.5589 North 158 182 6,100  Level Atlanta Center
08:18AM 35.5569 -82.5608 358° North 163 188 7,900 1,800 Climbing Atlanta Center
08:19AM 35.6031 -82.5572 North 163 188 9,700 1,620 Climbing Atlanta Center
08:20AM 35.6531 -82.5539 North 163 188 11,200 1,440 Climbing Atlanta Center
08:21AM 35.7197 -82.5500 North 189 217 12,600 1,500 Climbing Atlanta Center
08:22AM 35.8242 -82.5126 North  Level FlightAware Approximate
08:22AM 35.7758 -82.5439 North 204 235 14,200  Level Atlanta Center
08:23AM 35.8364 -82.5403 North 211 243 15,900 1,620 Climbing Atlanta Center
08:24AM 35.8947 -82.5367 North 217 250 17,500 1,440 Climbing Atlanta Center
08:25AM 35.9531 -82.5331 North 212 244 18,800 1,200 Climbing Atlanta Center
08:26AM 36.0031 -82.5294 North 212 244 19,900 1,140 Climbing Atlanta Center
08:27AM 36.0614 -82.5283 North 206 237 21,100 1,200 Climbing Atlanta Center
08:28AM 36.1156 -82.5222 North 200 230 22,300 1,140 Climbing Atlanta Center
08:29AM 36.1719 -82.5186 North 200 230 23,400 1,080 Climbing Atlanta Center
08:30AM 36.2281 -82.5150 North 195 224 24,500 1,080 Climbing Atlanta Center
08:31AM 36.2822 -82.5114 North 195 224 25,600 720 Climbing Atlanta Center
08:32AM 36.3386 -82.5078 North 200 230 26,000 120 Climbing Atlanta Center
08:34AM 36.4483 -82.5006 North 243 280 26,000  Level Indianapolis Center
08:35AM 36.5314 -82.4953 North 254 292 26,000  Level Indianapolis Center
08:36AM 36.6044 -82.4903 North 261 300 26,000  Level Indianapolis Center
08:37AM 36.6769 -82.4853 North 261 300 26,000  Level Indianapolis Center
08:38AM 36.7497 -82.4803 North 262 302 26,000  Level Indianapolis Center
08:39AM 36.8239 -82.4756 North 268 308 26,000  Level Indianapolis Center
08:40AM 36.8961 -82.4706 North 263 303 26,000  Level Indianapolis Center
08:41AM 36.9803 -82.4664 North 262 302 26,000  Level Indianapolis Center
08:42AM 37.0522 -82.4619 North 260 299 26,000  Level Indianapolis Center
08:43AM 37.1236 -82.4558 North 257 296 26,000  Level Indianapolis Center
08:44AM 37.1956 -82.4522 North 258 297 26,000  Level Indianapolis Center
08:45AM 37.2681 -82.4475 North 260 299 26,000  Level Indianapolis Center
08:46AM 37.3522 -82.4422 North 258 297 26,000  Level Indianapolis Center
08:47AM 37.4250 -82.4372 North 262 302 26,000  Level Indianapolis Center
08:48AM 37.4986 -82.4325 North 263 303 26,000  Level Indianapolis Center
08:49AM 37.5722 -82.4281 North 263 303 26,000  Level Indianapolis Center
08:50AM 37.6450 -82.4219 North 263 303 26,000  Level Indianapolis Center
08:51AM 37.7175 -82.4167 North 260 299 26,000  Level Indianapolis Center
08:52AM 37.8031 -82.4117 North 263 303 26,000  Level Indianapolis Center
08:54AM 37.8753 -82.4075 North 260 299 26,000  Level Indianapolis Center
08:55AM 37.9475 -82.4017 North 259 298 26,000  Level Indianapolis Center
08:56AM 38.0203 -82.3975 North 261 300 26,000  Level Indianapolis Center
08:57AM 38.0925 -82.3928 North 260 299 26,000  Level Indianapolis Center
08:58AM 38.1731 -82.3872 North 259 298 26,000  Level Indianapolis Center
08:59AM 38.2461 -82.3817 North 262 302 26,000  Level Indianapolis Center
09:00AM 38.3186 -82.3769 North 260 299 26,000  Level Indianapolis Center
09:01AM 38.3900 -82.3722 North 256 295 26,000  Level Indianapolis Center
09:02AM 38.4617 -82.3675 North 256 295 26,000  Level Indianapolis Center
09:03AM 38.5333 -82.3631 North 256 295 26,000  Level Indianapolis Center
09:04AM 38.6042 -82.3578 North 254 292 26,000  Level Indianapolis Center
09:05AM 38.6758 -82.3531 North 255 293 26,000  Level Indianapolis Center
09:06AM 38.7611 -82.3472 North 254 292 26,000  Level Indianapolis Center
09:07AM 38.8325 -82.3422 North 255 293 26,000  Level Indianapolis Center
09:08AM 38.9033 -82.3375 North 254 292 26,000  Level Indianapolis Center
09:09AM 38.9756 -82.3325 North 258 297 26,000  Level Indianapolis Center
09:10AM 39.0475 -82.3275 North 258 297 26,000  Level Indianapolis Center
09:11AM 39.1197 -82.3228 North 259 298 26,000  Level Indianapolis Center
09:12AM 39.1928 -82.3167 North 262 302 26,000  Level Indianapolis Center
09:13AM 39.2653 -82.3125 North 260 299 26,000  Level Indianapolis Center
09:14AM 39.3519 -82.3058 North 259 298 26,000  Level Indianapolis Center
09:15AM 39.4247 -82.3011 North 261 300 26,000  Level Indianapolis Center
09:16AM 39.5008 -82.2961 North 260 299 26,000  Level Indianapolis Center
09:17AM 39.5728 -82.2906 North 258 297 26,000  Level Indianapolis Center
09:18AM 39.6458 -82.2850 North 260 299 26,000  Level Indianapolis Center
09:19AM 39.7186 -82.2811 North 262 302 26,000  Level Indianapolis Center
09:20AM 39.7908 -82.2747 North 260 299 26,000  Level Indianapolis Center
09:21AM 39.8642 -82.2700 North 261 300 26,000  Level Indianapolis Center
09:22AM 39.9497 -82.2647 North 262 302 26,000  Level Indianapolis Center
09:23AM 40.0228 -82.2592 North 262 302 26,000  Level Indianapolis Center
09:24AM 40.0958 -82.2539 North 261 300 26,000  Level Indianapolis Center
09:26AM 40.1694 -82.2489 North 262 302 26,000  Level Indianapolis Center
09:27AM 40.2422 -82.2433 North 261 300 26,000  Level Indianapolis Center
09:28AM 40.3125 -82.2392 North 259 298 26,000  Level Indianapolis Center
09:29AM 40.3978 -82.2319 North 262 302 26,000  Level Indianapolis Center
09:30AM 40.4703 -82.2275 North 259 298 26,000  Level Indianapolis Center
09:31AM 40.5414 -82.2414 352° North 254 292 26,000  Level Indianapolis Center
09:32AM 40.6136 -82.2628 347° North 260 299 26,000  Level Indianapolis Center
09:32AM 40.6486 -82.2717 349° North 261 300 26,000  Level Cleveland Center
09:33AM 40.7192 -82.2953 346° North 256 295 26,000  Level Cleveland Center
09:34AM 40.7897 -82.3136 349° North 256 295 26,000 -540 Level Cleveland Center
09:35AM 40.8625 -82.3347 348° North 256 295 25,000 -1,020 Descending Cleveland Center
09:36AM 40.9475 -82.3589 348° North 274 315 24,000 -960 Descending Cleveland Center
09:37AM 41.0222 -82.3831 346° North 279 321 23,100 -1,200 Descending Cleveland Center
09:38AM 41.1011 -82.4072 347° North 279 321 21,600 -1,500 Descending Cleveland Center
09:39AM 41.1758 -82.4286 348° North 279 321 20,100 -840 Descending Cleveland Center
09:40AM 41.2483 -82.4500 347° North 274 315 20,000 -180 Descending Cleveland Center
09:41AM 41.3169 -82.4686 348° North 262 302 19,800 -960 Descending Cleveland Center
09:42AM 41.3894 -82.4900 348° North 257 296 18,100 -1,440 Descending Cleveland Center
09:43AM 41.4558 -82.5086 348° North 257 296 17,000 -1,380 Descending Cleveland Center
09:44AM 41.5242 -82.5467 337° Northwest 257 296 15,400 -1,380 Descending Cleveland Center
09:45AM 41.5747 -82.6261 310° West 272 313 14,300 -1,260 Descending Cleveland Center
09:46AM 41.6153 -82.6883 311° West 273 314 13,300 -1,200 Descending Cleveland Center
09:46AM 41.6236 -82.7025 308° West 272 313 13,100 -1,080 Descending Cleveland Center
09:47AM 41.6819 -82.8019 308° West 274 315 11,800 -1,140 Descending Cleveland Center
09:48AM 41.7164 -82.8586 309° West 277 319 10,900 -1,140 Descending Cleveland Center
09:49AM 41.7669 -82.9411 309° West 265 305 9,800 -1,140 Descending Cleveland Center
09:50AM 41.8131 -83.0181 309° West 265 305 8,700 -1,080 Descending Cleveland Center
09:51AM 41.8594 -83.0981 308° West 277 319 7,600 -1,140 Descending Cleveland Center
09:52AM 41.9039 -83.1639 312° West 265 305 6,600 -1,200 Descending Cleveland Center
09:53AM 41.9519 -83.2494 307° West 272 313 5,300 -1,200 Descending Cleveland Center
09:54AM 41.9961 -83.3242 309° West 266 306 4,200 -1,140 Descending Cleveland Center
09:55AM 42.0400 -83.3986 308° West 260 299 3,100 -720 Descending Cleveland Center
09:56AM 42.0922 -83.4850 309° West 217 250 2,600 -300 Descending Cleveland Center
09:57AM 42.1200 -83.5339 307° West 209 241 2,600 -180 Level Cleveland Center
09:58AM 42.1650 -83.5722 328° Northwest 180 207 2,300 -480 Descending Cleveland Center
09:59AM 42.2044 -83.5797 352° North 125 144 1,700 -600 Descending Cleveland Center
10:01AM 42.2393 -83.5310 46° Northeast  Level Estimated
10:08AM 42.2393 -83.5310 43° Northeast  Level Estimated
10:09AM 42.2393 -83.5310 43° Northeast  Level Estimated
10:10AM 42.2393 -83.5310 43° Northeast  Level Estimated